createdAt,value
2019-05-13T00:00:15.152Z,81.23
2019-05-13T00:02:43.913Z,81.26
2019-05-13T00:05:14.773Z,81.06
2019-05-13T00:07:43.932Z,80.81
2019-05-13T00:10:14.640Z,80.76
2019-05-13T00:12:44.518Z,81.48
2019-05-13T00:15:14.375Z,81.71
2019-05-13T00:17:44.725Z,82.32
2019-05-13T00:20:14.275Z,83.53
2019-05-13T00:22:44.623Z,83.76
2019-05-13T00:25:14.538Z,84.49
2019-05-13T00:27:44.339Z,84.13
2019-05-13T00:30:14.533Z,84.83
2019-05-13T00:32:44.566Z,84.74
2019-05-13T00:35:14.184Z,85.41
2019-05-13T00:37:44.314Z,86.59
2019-05-13T00:40:14.458Z,85.80
2019-05-13T00:42:44.131Z,86.34
2019-05-13T00:45:14.627Z,86.77
2019-05-13T00:47:43.729Z,86.76
2019-05-13T00:50:14.323Z,86.23
2019-05-13T00:52:44.947Z,86.66
2019-05-13T00:55:14.742Z,86.33
2019-05-13T00:57:43.937Z,86.61
2019-05-13T01:00:14.408Z,86.54
2019-05-13T01:02:44.585Z,86.71
2019-05-13T01:05:14.704Z,86.13
2019-05-13T01:07:44.460Z,87.18
2019-05-13T01:10:13.682Z,87.60
2019-05-13T01:12:44.092Z,87.87
2019-05-13T01:15:13.558Z,88.24
2019-05-13T01:17:44.710Z,87.82
2019-05-13T01:20:14.476Z,87.96
2019-05-13T01:22:44.058Z,88.40
2019-05-13T01:25:14.485Z,88.60
2019-05-13T01:27:44.154Z,88.70
2019-05-13T01:30:13.751Z,88.80
2019-05-13T01:32:44.514Z,89.36
2019-05-13T01:35:14.908Z,89.68
2019-05-13T01:37:45.903Z,89.73
2019-05-13T01:40:13.902Z,89.97
2019-05-13T01:42:44.437Z,89.67
2019-05-13T01:45:13.903Z,89.94
2019-05-13T01:47:44.115Z,90.16
2019-05-13T01:50:14.374Z,89.86
2019-05-13T01:52:44.639Z,90.01
2019-05-13T01:55:14.770Z,89.69
2019-05-13T01:57:44.390Z,90.11
2019-05-13T02:00:14.362Z,90.25
2019-05-13T02:02:44.612Z,90.30
2019-05-13T02:05:14.296Z,90.24
2019-05-13T02:07:54.565Z,90.40
2019-05-13T02:10:15.322Z,90.40
2019-05-13T02:12:44.659Z,90.63
2019-05-13T02:15:14.484Z,90.31
2019-05-13T02:17:44.714Z,89.65
2019-05-13T02:20:14.889Z,89.76
2019-05-13T02:22:44.538Z,90.85
2019-05-13T02:25:13.909Z,91.24
2019-05-13T02:27:44.012Z,90.31
2019-05-13T02:30:16.071Z,90.14
2019-05-13T02:32:43.667Z,90.38
2019-05-13T02:35:13.864Z,90.19
2019-05-13T02:37:43.828Z,89.84
2019-05-13T02:40:13.833Z,90.46
2019-05-13T02:42:43.661Z,91.12
2019-05-13T02:45:12.907Z,90.36
2019-05-13T02:47:44.314Z,90.91
2019-05-13T02:50:12.873Z,90.50
2019-05-13T02:52:44.346Z,89.96
2019-05-13T02:55:12.772Z,90.91
2019-05-13T02:57:43.616Z,90.49
2019-05-13T03:00:13.285Z,90.33
2019-05-13T03:02:43.834Z,90.87
2019-05-13T03:05:13.634Z,89.07
2019-05-13T03:07:42.952Z,89.37
2019-05-13T03:10:14.062Z,89.54
2019-05-13T03:12:42.811Z,90.42
2019-05-13T03:15:13.396Z,89.77
2019-05-13T03:17:52.916Z,89.80
2019-05-13T03:20:22.837Z,90.13
2019-05-13T03:22:52.510Z,89.53
2019-05-13T03:25:22.810Z,88.12
2019-05-13T03:27:53.927Z,89.06
2019-05-13T03:30:25.680Z,86.72
2019-05-13T03:33:00.384Z,85.28
2019-05-13T03:35:26.798Z,85.50
2019-05-13T03:37:53.637Z,84.47
2019-05-13T03:40:23.442Z,82.00
2019-05-13T03:42:53.773Z,79.71
2019-05-13T03:45:24.732Z,79.32
2019-05-13T03:47:55.570Z,78.81
2019-05-13T03:50:24.121Z,77.60
2019-05-13T03:52:52.938Z,77.67
2019-05-13T03:55:22.947Z,78.22
2019-05-13T03:57:53.257Z,78.14
2019-05-13T04:00:23.501Z,78.63
2019-05-13T04:02:53.287Z,79.06
2019-05-13T04:05:23.261Z,79.48
2019-05-13T04:07:52.569Z,79.48
2019-05-13T04:10:22.907Z,78.96
2019-05-13T04:12:52.924Z,80.52
2019-05-13T04:15:23.514Z,83.64
2019-05-13T04:17:53.280Z,84.35
2019-05-13T04:20:23.356Z,84.75
2019-05-13T04:22:53.457Z,84.76
2019-05-13T04:25:23.084Z,85.49
2019-05-13T04:27:53.455Z,86.03
2019-05-13T04:30:22.830Z,84.60
2019-05-13T04:32:53.388Z,84.52
2019-05-13T04:35:23.380Z,85.42
2019-05-13T04:37:53.072Z,82.90
2019-05-13T04:40:23.105Z,83.35
2019-05-13T04:42:53.614Z,84.91
2019-05-13T04:45:24.074Z,84.72
2019-05-13T04:47:53.136Z,81.03
2019-05-13T04:50:22.758Z,76.98
2019-05-13T04:52:53.037Z,73.35
2019-05-13T04:55:22.934Z,70.34
2019-05-13T04:57:53.214Z,70.95
2019-05-13T05:00:49.914Z,69.10
2019-05-13T05:03:33.091Z,68.30
2019-05-13T05:06:03.324Z,67.71
2019-05-13T05:08:52.558Z,66.44
2019-05-13T05:11:44.405Z,67.55
2019-05-13T05:14:32.465Z,67.26
2019-05-13T05:17:34.231Z,67.28
2019-05-13T05:20:08.589Z,64.71
2019-05-13T05:23:07.020Z,65.18
2019-05-13T05:25:52.141Z,64.61
2019-05-13T05:28:29.416Z,65.10
2019-05-13T05:31:24.016Z,63.32
2019-05-13T05:34:21.918Z,63.07
2019-05-13T05:36:53.714Z,62.78
2019-05-13T05:39:24.936Z,61.00
2019-05-13T05:41:56.401Z,61.15
2019-05-13T05:44:32.394Z,62.86
2019-05-13T05:47:02.817Z,61.24
2019-05-13T05:49:32.373Z,60.48
2019-05-13T05:52:03.570Z,60.58
2019-05-13T05:54:34.628Z,60.63
2019-05-13T05:57:04.844Z,59.65
2019-05-13T05:59:34.357Z,58.30
2019-05-13T06:02:04.114Z,58.57
2019-05-13T06:04:32.822Z,58.31
2019-05-13T06:07:03.518Z,57.73
2019-05-13T06:09:32.459Z,57.20
2019-05-13T06:12:01.919Z,57.49
2019-05-13T06:14:32.659Z,57.29
2019-05-13T06:17:02.585Z,56.85
2019-05-13T06:19:32.013Z,57.37
2019-05-13T06:22:02.249Z,57.29
2019-05-13T06:24:31.431Z,57.42
2019-05-13T06:27:01.563Z,58.04
2019-05-13T06:29:31.672Z,56.76
2019-05-13T06:32:15.110Z,57.22
2019-05-13T06:34:32.801Z,56.95
2019-05-13T06:37:01.905Z,57.87
2019-05-13T06:39:31.629Z,55.11
2019-05-13T06:42:02.712Z,53.10
2019-05-13T06:44:31.644Z,53.27
2019-05-13T06:47:02.429Z,52.17
2019-05-13T06:49:32.273Z,52.97
2019-05-13T06:52:01.658Z,52.56
2019-05-13T06:54:32.959Z,53.60
2019-05-13T06:57:04.553Z,53.43
2019-05-13T06:59:31.760Z,52.63
2019-05-13T07:02:02.101Z,52.32
2019-05-13T07:04:32.739Z,52.10
2019-05-13T07:07:09.837Z,50.87
2019-05-13T07:09:32.347Z,51.18
2019-05-13T07:12:03.175Z,52.64
2019-05-13T07:14:32.495Z,51.85
2019-05-13T07:17:02.001Z,52.77
2019-05-13T07:19:32.324Z,52.23
2019-05-13T07:22:02.658Z,53.95
2019-05-13T07:24:32.291Z,52.61
2019-05-13T07:27:01.984Z,53.00
2019-05-13T07:29:32.438Z,51.37
2019-05-13T07:32:01.958Z,51.13
2019-05-13T07:34:33.476Z,49.32
2019-05-13T07:37:02.249Z,50.51
2019-05-13T07:39:32.807Z,51.46
2019-05-13T07:42:05.254Z,48.91
2019-05-13T07:44:32.601Z,48.44
2019-05-13T07:47:03.448Z,49.33
2019-05-13T07:49:31.867Z,48.09
2019-05-13T07:52:01.687Z,48.42
2019-05-13T07:54:32.957Z,46.38
2019-05-13T07:57:01.928Z,47.02
2019-05-13T07:59:31.861Z,44.53
2019-05-13T08:02:02.042Z,44.00
2019-05-13T08:04:33.457Z,42.94
2019-05-13T08:07:02.259Z,44.97
2019-05-13T08:09:31.907Z,45.00
2019-05-13T08:12:09.899Z,43.49
2019-05-13T08:14:32.895Z,44.38
2019-05-13T08:17:02.572Z,44.15
2019-05-13T08:19:32.587Z,42.53
2019-05-13T08:22:02.161Z,40.99
2019-05-13T08:24:31.562Z,40.91
2019-05-13T08:27:01.997Z,42.87
2019-05-13T08:29:32.734Z,42.12
2019-05-13T08:32:02.796Z,42.07
2019-05-13T08:34:32.868Z,42.05
2019-05-13T08:37:02.941Z,41.70
2019-05-13T08:39:35.792Z,41.02
2019-05-13T08:42:14.686Z,41.63
2019-05-13T08:44:32.422Z,39.73
2019-05-13T08:47:03.094Z,40.85
2019-05-13T08:49:32.594Z,41.44
2019-05-13T08:52:01.982Z,40.61
2019-05-13T08:54:32.938Z,42.88
2019-05-13T08:57:02.773Z,41.55
2019-05-13T08:59:32.156Z,39.70
2019-05-13T09:02:02.958Z,39.95
2019-05-13T09:04:31.713Z,37.47
2019-05-13T09:07:02.321Z,38.10
2019-05-13T09:09:31.610Z,36.03
2019-05-13T09:12:02.539Z,37.69
2019-05-13T09:14:32.340Z,37.74
2019-05-13T09:17:02.082Z,37.78
2019-05-13T09:19:32.308Z,38.07
2019-05-13T09:22:03.119Z,38.11
2019-05-13T09:24:37.345Z,36.64
2019-05-13T09:27:02.027Z,36.85
2019-05-13T09:29:32.247Z,35.58
2019-05-13T09:32:03.669Z,34.57
2019-05-13T09:34:32.835Z,36.19
2019-05-13T09:37:02.750Z,35.13
2019-05-13T09:39:32.412Z,32.90
2019-05-13T09:42:02.607Z,33.68
2019-05-13T09:44:32.730Z,31.33
2019-05-13T09:47:02.594Z,29.84
2019-05-13T09:49:33.003Z,30.91
2019-05-13T09:52:02.056Z,31.12
2019-05-13T09:54:33.046Z,32.09
2019-05-13T09:57:02.093Z,32.51
2019-05-13T09:59:31.865Z,31.84
2019-05-13T10:02:03.105Z,33.22
2019-05-13T10:04:32.067Z,33.73
2019-05-13T10:07:02.107Z,32.35
2019-05-13T10:09:32.550Z,31.00
2019-05-13T10:12:03.197Z,28.59
2019-05-13T10:14:32.761Z,33.81
2019-05-13T10:17:05.980Z,36.19
2019-05-13T10:19:32.559Z,37.00
2019-05-13T10:22:01.414Z,33.34
2019-05-13T10:24:32.502Z,30.98
2019-05-13T10:27:02.422Z,32.92
2019-05-13T10:29:32.233Z,31.55
2019-05-13T10:34:32.567Z,32.37
2019-05-13T10:37:02.576Z,34.33
2019-05-13T10:39:31.184Z,32.59
2019-05-13T10:41:59.624Z,32.63
2019-05-13T10:44:28.096Z,32.38
2019-05-13T10:46:56.525Z,29.62
2019-05-13T10:49:25.081Z,29.25
2019-05-13T10:51:53.523Z,28.77
2019-05-13T10:54:22.037Z,30.29
2019-05-13T10:56:53.155Z,32.66
2019-05-13T10:59:22.956Z,28.97
2019-05-13T11:01:50.870Z,30.15
2019-05-13T11:04:21.864Z,31.10
2019-05-13T11:06:52.414Z,29.69
2019-05-13T11:09:21.893Z,31.01
2019-05-13T11:11:52.924Z,30.91
2019-05-13T11:14:22.075Z,31.68
2019-05-13T11:16:52.344Z,29.39
2019-05-13T11:19:23.188Z,29.68
2019-05-13T11:21:51.693Z,32.65
2019-05-13T11:24:22.601Z,32.21
2019-05-13T11:26:52.264Z,30.97
2019-05-13T11:29:22.998Z,30.93
2019-05-13T11:31:52.501Z,28.38
2019-05-13T11:34:22.155Z,29.88
2019-05-13T11:36:53.382Z,31.43
2019-05-13T11:39:21.853Z,32.55
2019-05-13T11:41:50.709Z,31.44
2019-05-13T11:44:19.258Z,31.79
2019-05-13T11:46:47.696Z,32.96
2019-05-13T11:49:16.160Z,32.10
2019-05-13T11:51:45.193Z,31.05
2019-05-13T11:54:14.275Z,32.44
2019-05-13T11:56:49.189Z,30.31
2019-05-13T11:59:14.083Z,32.60
2019-05-13T12:01:43.169Z,31.33
2019-05-13T12:04:11.731Z,30.55
2019-05-13T12:09:13.051Z,31.97
2019-05-13T12:11:40.816Z,30.95
2019-05-13T12:14:34.712Z,31.19
2019-05-13T12:16:42.327Z,30.55
2019-05-13T12:19:11.855Z,30.59
2019-05-13T12:21:43.342Z,29.70
2019-05-13T12:24:11.316Z,30.79
2019-05-13T12:26:43.082Z,30.38
2019-05-13T12:29:18.339Z,29.11
2019-05-13T12:31:40.444Z,29.37
2019-05-13T12:34:12.844Z,30.21
2019-05-13T12:36:42.961Z,31.20
2019-05-13T12:39:13.827Z,28.74
2019-05-13T12:41:42.092Z,29.35
2019-05-13T12:44:12.786Z,31.45
2019-05-13T12:46:41.497Z,29.35
2019-05-13T12:49:14.188Z,30.00
2019-05-13T12:51:43.998Z,28.85
2019-05-13T12:54:13.527Z,27.63
2019-05-13T12:56:42.508Z,26.58
2019-05-13T12:59:13.296Z,26.63
2019-05-13T13:01:41.406Z,28.27
2019-05-13T13:04:12.352Z,28.13
2019-05-13T13:06:44.832Z,28.44
2019-05-13T13:11:43.464Z,29.20
2019-05-13T13:14:15.087Z,26.07
2019-05-13T13:16:42.430Z,26.78
2019-05-13T13:19:14.812Z,26.49
2019-05-13T13:21:41.475Z,25.83
2019-05-13T13:24:12.304Z,27.01
2019-05-13T13:26:42.424Z,26.42
2019-05-13T13:29:10.493Z,29.01
2019-05-13T13:31:42.720Z,26.72
2019-05-13T13:34:16.379Z,27.68
2019-05-13T13:36:45.238Z,27.99
2019-05-13T13:39:13.727Z,28.62
2019-05-13T13:41:43.436Z,27.02
2019-05-13T13:44:12.349Z,27.17
2019-05-13T13:46:47.400Z,27.35
2019-05-13T13:49:12.943Z,25.52
2019-05-13T13:51:44.394Z,26.28
2019-05-13T13:54:11.157Z,26.72
2019-05-13T13:56:42.722Z,26.98
2019-05-13T13:59:12.861Z,26.18
2019-05-13T14:01:40.002Z,26.03
2019-05-13T14:04:08.593Z,29.25
2019-05-13T14:06:31.860Z,32.32
2019-05-13T14:06:44.450Z,28.50
2019-05-13T14:07:05.575Z,33.92
2019-05-13T14:09:08.202Z,30.22
2019-05-13T14:11:36.656Z,29.96
2019-05-13T14:14:05.479Z,29.88
2019-05-13T14:16:35.169Z,29.44
2019-05-13T14:19:04.353Z,30.55
2019-05-13T14:21:32.814Z,30.12
2019-05-13T14:24:02.643Z,29.36
2019-05-13T14:26:32.988Z,30.62
2019-05-13T14:29:02.652Z,27.91
2019-05-13T14:31:32.371Z,28.90
2019-05-13T14:34:03.375Z,29.66
2019-05-13T14:36:31.305Z,31.67
2019-05-13T14:39:02.588Z,30.69
2019-05-13T14:41:31.232Z,30.67
2019-05-13T14:43:59.957Z,29.88
2019-05-13T14:46:45.815Z,29.25
2019-05-13T14:48:58.583Z,30.39
2019-05-13T14:51:27.080Z,30.78
2019-05-13T14:53:55.490Z,29.39
2019-05-13T14:56:24.067Z,30.23
2019-05-13T14:58:52.511Z,30.54
2019-05-13T15:01:22.660Z,30.38
2019-05-13T15:03:52.008Z,29.20
2019-05-13T15:06:21.991Z,30.99
2019-05-13T15:08:52.692Z,31.70
2019-05-13T15:11:21.983Z,29.23
2019-05-13T15:13:51.785Z,29.38
2019-05-13T15:16:22.404Z,30.01
2019-05-13T15:18:52.511Z,29.89
2019-05-13T15:21:21.461Z,30.87
2019-05-13T15:23:51.820Z,31.57
2019-05-13T15:26:22.294Z,30.08
2019-05-13T15:28:51.848Z,28.56
2019-05-13T15:31:22.099Z,29.28
2019-05-13T15:33:52.421Z,29.40
2019-05-13T15:36:22.588Z,30.51
2019-05-13T15:38:51.962Z,31.73
2019-05-13T15:41:20.584Z,30.21
2019-05-13T15:43:51.246Z,31.15
2019-05-13T15:46:21.826Z,30.58
2019-05-13T15:48:51.465Z,32.16
2019-05-13T15:51:22.148Z,31.37
2019-05-13T15:53:51.676Z,32.14
2019-05-13T15:56:22.430Z,32.54
2019-05-13T15:58:52.974Z,32.34
2019-05-13T16:01:22.961Z,31.62
2019-05-13T16:03:52.406Z,30.97
2019-05-13T16:06:21.425Z,29.86
2019-05-13T16:08:51.944Z,30.60
2019-05-13T16:11:21.960Z,30.46
2019-05-13T16:13:51.877Z,29.60
2019-05-13T16:16:22.057Z,30.53
2019-05-13T16:18:51.444Z,31.52
2019-05-13T16:21:20.335Z,32.73
2019-05-13T16:23:48.747Z,31.77
2019-05-13T16:26:17.271Z,31.04
2019-05-13T16:28:45.830Z,31.98
2019-05-13T16:31:14.359Z,31.41
2019-05-13T16:33:42.783Z,30.62
2019-05-13T16:36:12.680Z,32.40
2019-05-13T16:38:41.872Z,32.02
2019-05-13T16:41:12.469Z,31.16
2019-05-13T16:43:42.677Z,31.55
2019-05-13T16:46:12.201Z,32.55
2019-05-13T16:48:41.597Z,31.67
2019-05-13T16:51:12.330Z,33.79
2019-05-13T16:53:42.112Z,31.78
2019-05-13T16:56:25.309Z,32.24
2019-05-13T16:58:41.885Z,31.93
2019-05-13T17:01:11.877Z,32.93
2019-05-13T17:03:41.476Z,32.32
2019-05-13T17:06:12.494Z,32.44
2019-05-13T17:08:42.418Z,32.02
2019-05-13T17:11:11.820Z,33.53
2019-05-13T17:13:42.202Z,34.69
2019-05-13T17:16:10.763Z,33.65
2019-05-13T17:18:41.480Z,34.71
2019-05-13T17:21:09.423Z,35.31
2019-05-13T17:23:37.853Z,33.70
2019-05-13T17:26:06.309Z,34.98
2019-05-13T17:28:34.859Z,35.04
2019-05-13T17:31:03.441Z,35.40
2019-05-13T17:33:32.121Z,35.92
2019-05-13T17:36:01.956Z,35.26
2019-05-13T17:38:32.255Z,34.38
2019-05-13T17:41:02.394Z,35.10
2019-05-13T17:43:32.170Z,35.81
2019-05-13T17:46:00.936Z,36.19
2019-05-13T17:48:32.617Z,35.07
2019-05-13T17:51:01.328Z,36.46
2019-05-13T17:53:32.389Z,36.55
2019-05-13T17:56:02.454Z,36.78
2019-05-13T17:58:31.426Z,38.00
2019-05-13T18:01:01.656Z,39.06
2019-05-13T18:03:32.072Z,40.15
2019-05-13T18:06:02.436Z,40.49
2019-05-13T18:08:31.989Z,39.90
2019-05-13T18:11:02.157Z,40.27
2019-05-13T18:13:31.259Z,41.43
2019-05-13T18:16:02.563Z,42.21
2019-05-13T18:18:40.577Z,42.49
2019-05-13T18:21:01.476Z,42.72
2019-05-13T18:23:30.117Z,42.75
2019-05-13T18:25:58.695Z,42.49
2019-05-13T18:28:31.073Z,42.01
2019-05-13T18:30:57.383Z,42.53
2019-05-13T18:33:25.876Z,43.38
2019-05-13T18:35:54.597Z,44.71
2019-05-13T18:38:23.030Z,44.18
2019-05-13T18:40:52.593Z,44.17
2019-05-13T18:43:21.645Z,44.51
2019-05-13T18:45:52.278Z,45.04
2019-05-13T18:48:21.868Z,45.50
2019-05-13T18:50:52.390Z,45.62
2019-05-13T18:53:21.519Z,46.49
2019-05-13T18:55:52.394Z,47.09
2019-05-13T18:58:22.236Z,47.93
2019-05-13T19:00:52.348Z,48.22
2019-05-13T19:03:21.747Z,48.07
2019-05-13T19:05:50.528Z,48.24
2019-05-13T19:08:21.292Z,48.15
2019-05-13T19:10:49.275Z,49.33
2019-05-13T19:13:17.806Z,49.42
2019-05-13T19:15:46.374Z,49.14
2019-05-13T19:18:14.851Z,49.04
2019-05-13T19:20:43.304Z,49.03
2019-05-13T19:23:12.035Z,49.38
2019-05-13T19:25:42.732Z,49.09
2019-05-13T19:28:11.890Z,49.28
2019-05-13T19:30:41.138Z,49.79
2019-05-13T19:33:12.136Z,49.73
2019-05-13T19:35:42.405Z,49.92
2019-05-13T19:38:12.141Z,50.07
2019-05-13T19:40:41.951Z,50.50
2019-05-13T19:43:11.548Z,50.39
2019-05-13T19:45:41.613Z,51.30
2019-05-13T19:48:11.810Z,51.18
2019-05-13T19:50:41.628Z,51.48
2019-05-13T19:53:12.078Z,51.49
2019-05-13T19:55:41.481Z,52.05
2019-05-13T19:58:12.208Z,51.88
2019-05-13T20:00:42.371Z,52.81
2019-05-13T20:03:11.747Z,53.14
2019-05-13T20:05:41.437Z,53.44
2019-05-13T20:08:10.256Z,54.35
2019-05-13T20:10:38.723Z,55.24
2019-05-13T20:13:07.264Z,55.65
2019-05-13T20:15:35.696Z,56.93
2019-05-13T20:18:04.260Z,56.60
2019-05-13T20:20:32.888Z,57.25
2019-05-13T20:23:01.694Z,56.22
2019-05-13T20:25:31.210Z,53.56
2019-05-13T20:28:02.158Z,53.81
2019-05-13T20:30:29.941Z,54.15
2019-05-13T20:32:58.388Z,54.49
2019-05-13T20:35:26.843Z,55.73
2019-05-13T20:37:55.274Z,56.09
2019-05-13T20:40:23.774Z,56.75
2019-05-13T20:42:52.266Z,57.60
2019-05-13T20:45:22.505Z,57.69
2019-05-13T20:47:51.096Z,59.14
2019-05-13T20:50:21.716Z,59.75
2019-05-13T20:52:51.608Z,58.45
2019-05-13T20:55:22.071Z,58.39
2019-05-13T20:57:52.822Z,57.89
2019-05-13T21:00:20.785Z,58.06
2019-05-13T21:02:51.496Z,57.00
2019-05-13T21:05:21.655Z,57.11
2019-05-13T21:07:51.601Z,56.07
2019-05-13T21:10:21.165Z,55.54
2019-05-13T21:12:51.368Z,56.14
2019-05-13T21:15:20.043Z,57.60
2019-05-13T21:17:48.516Z,58.85
2019-05-13T21:20:21.993Z,59.43
2019-05-13T21:22:47.372Z,58.87
2019-05-13T21:25:16.331Z,58.91
2019-05-13T21:27:44.878Z,59.27
2019-05-13T21:30:14.005Z,59.03
2019-05-13T21:32:42.565Z,58.79
2019-05-13T21:35:12.007Z,58.43
2019-05-13T21:37:40.607Z,57.62
2019-05-13T21:40:11.185Z,58.42
2019-05-13T21:42:41.864Z,58.65
2019-05-13T21:45:11.240Z,57.36
2019-05-13T21:47:39.904Z,56.10
2019-05-13T21:50:08.774Z,54.72
2019-05-13T21:52:37.855Z,54.42
2019-05-13T21:55:07.310Z,53.16
2019-05-13T21:57:35.771Z,52.54
2019-05-13T22:00:10.485Z,53.02
2019-05-13T22:02:40.791Z,54.49
2019-05-13T22:05:11.593Z,55.79
2019-05-13T22:07:41.900Z,55.85
2019-05-13T22:10:10.624Z,55.40
2019-05-13T22:12:41.270Z,55.87
2019-05-13T22:15:10.138Z,55.39
2019-05-13T22:17:38.601Z,54.67
2019-05-13T22:20:09.362Z,54.09
2019-05-13T22:22:37.797Z,54.30
2019-05-13T22:25:09.465Z,54.27
2019-05-13T22:27:37.925Z,54.67
2019-05-13T22:30:11.872Z,54.32
2019-05-13T22:32:41.774Z,54.02
2019-05-13T22:35:11.208Z,54.20
2019-05-13T22:37:39.879Z,53.81
2019-05-13T22:40:11.084Z,53.89
2019-05-13T22:42:41.337Z,53.50
2019-05-13T22:45:11.479Z,53.70
2019-05-13T22:47:41.537Z,54.21
2019-05-13T22:50:11.393Z,53.59
2019-05-13T22:52:41.967Z,53.56
2019-05-13T22:55:11.529Z,54.10
2019-05-13T22:57:41.956Z,54.56
2019-05-13T23:00:11.860Z,54.64
2019-05-13T23:02:42.160Z,54.13
2019-05-13T23:05:11.413Z,54.45
2019-05-13T23:07:40.001Z,54.06
2019-05-13T23:10:09.661Z,54.44
2019-05-13T23:12:39.298Z,54.30
2019-05-13T23:15:08.593Z,54.21
2019-05-13T23:17:37.128Z,54.25
2019-05-13T23:20:08.842Z,54.07
2019-05-13T23:22:37.335Z,54.17
2019-05-13T23:25:08.813Z,53.81
2019-05-13T23:27:37.264Z,54.21
2019-05-13T23:30:11.642Z,54.77
2019-05-13T23:32:39.851Z,54.67
2019-05-13T23:35:08.461Z,54.76
2019-05-13T23:37:36.887Z,55.17
2019-05-13T23:40:08.606Z,54.35
2019-05-13T23:42:37.058Z,55.19
2019-05-13T23:45:08.699Z,55.45
2019-05-13T23:47:37.128Z,55.56
2019-05-13T23:50:06.694Z,54.86
2019-05-13T23:52:35.115Z,55.74
2019-05-13T23:55:05.971Z,55.93
2019-05-13T23:57:34.679Z,56.33
